Aérodrome :
LOGIN :

S'inscrire | Disclaimer

   EN    FR    IT 

 










Légende :    VFR   VFR Marginal   IFR   IFR Intensif   IFR Très Intensif
Visi : 
Plafond : 
>= 8 km
>= 3000ft
5 à 8 km
1000 à 3000 ft
1500m à 5 km
500 à 1000 ft
800 à 1500m
200 à 500 ft
< 800m
< 200 ft
Symboles :   Orages  Brouillard  Fortes neiges  Fortes précipitations  Vent > 20 kt
SIGMETs :   Divers  Orages  Givrage  Turbulence  Onde Orograph.  Cendres Volcan.






- Altitude de l'aérodrome : 358 ft


EGTC - Cranfield

DERNIER METAR :
  • 090950Z 31016KT 9999 FEW016 08/04 Q1006

METARs EXPIRÉS :
  • 090920Z 31015KT CAVOK 08/04 Q1006
  • 090850Z 31013G22KT CAVOK 07/04 Q1005
  • 090820Z 31010G22KT CAVOK 06/04 Q1004
  • 090750Z 31015KT 9999 SCT037 07/05 Q1002
  • 090720Z 31014KT 290V350 9999 FEW037 06/05 Q1007

TAF TAF EGTC
Valide du 09 à 09h jusqu'au 09 à 18h UTC


090756Z 0909/0918 30015G25KT 9999 SCT025
BECMG 0912/0915 32012KT



MET'MAP, la Météo Aéronautique d'un coup d'oeil ! - Copyright ORBIFLY Décembre 2007 - Disclaimer

ORBIFLY MET'MAP TEAM :

Programmation & Développement : Alexandra Zaïnal
Sur une idée originale de : Baudouin d'Aumeries
Assistance à la programmation : Marc-Olivier Méhu
Soutien technique & logistique : Manuel Goepfert

Contact : metmap@orbifly.com




SOURCES & CREDITS :

   NOAA